createdAt,value
2023-08-03T00:00:37.620Z,16.89
2023-08-03T00:04:42.518Z,16.90
2023-08-03T00:08:45.558Z,16.97
2023-08-03T00:12:50.692Z,17.04
2023-08-03T00:16:53.828Z,16.66
2023-08-03T00:20:57.096Z,16.63
2023-08-03T00:25:00.464Z,16.61
2023-08-03T00:29:04.868Z,16.47
2023-08-03T00:33:08.059Z,16.40
2023-08-03T00:37:11.960Z,16.41
2023-08-03T00:41:15.004Z,16.55
2023-08-03T00:45:19.440Z,16.42
2023-08-03T00:49:28.864Z,16.34
2023-08-03T00:53:31.965Z,16.35
2023-08-03T00:57:35.017Z,16.27
2023-08-03T01:01:40.042Z,16.27
2023-08-03T01:05:43.018Z,16.21
2023-08-03T01:10:06.639Z,16.21
2023-08-03T01:14:43.599Z,16.22
2023-08-03T01:19:22.616Z,16.35
2023-08-03T01:24:00.595Z,16.30
2023-08-03T01:28:37.639Z,16.28
2023-08-03T01:33:14.681Z,16.36
2023-08-03T01:37:51.587Z,16.44
2023-08-03T01:42:30.629Z,16.34
2023-08-03T01:47:07.669Z,16.31
2023-08-03T01:51:46.981Z,16.23
2023-08-03T01:56:27.650Z,16.22
2023-08-03T02:01:05.781Z,16.27
2023-08-03T02:05:42.609Z,16.23
2023-08-03T02:10:19.606Z,16.30
2023-08-03T02:14:56.631Z,16.33
2023-08-03T02:19:34.625Z,16.37
2023-08-03T02:24:11.654Z,16.39
2023-08-03T02:28:48.634Z,16.47
2023-08-03T02:33:19.658Z,16.51
2023-08-03T02:37:57.688Z,16.63
2023-08-03T02:42:34.690Z,16.71
2023-08-03T02:47:12.646Z,16.75
2023-08-03T02:51:50.674Z,16.70
2023-08-03T02:56:39.665Z,16.73
2023-08-03T03:01:16.686Z,16.77
2023-08-03T03:05:56.663Z,16.78
2023-08-03T03:10:36.697Z,16.79
2023-08-03T03:15:14.686Z,16.88
2023-08-03T03:19:31.237Z,16.82
2023-08-03T03:23:34.846Z,16.87
2023-08-03T03:27:38.039Z,16.82
2023-08-03T03:31:42.443Z,16.78
2023-08-03T03:35:45.667Z,16.75
2023-08-03T03:39:52.985Z,16.72
2023-08-03T03:44:02.900Z,16.76
2023-08-03T03:48:07.466Z,16.86
2023-08-03T03:52:10.734Z,16.95
2023-08-03T03:56:14.634Z,16.96
2023-08-03T04:00:17.921Z,16.93
2023-08-03T04:04:25.313Z,16.86
2023-08-03T04:08:28.598Z,16.90
2023-08-03T04:12:31.560Z,16.88
2023-08-03T04:16:34.584Z,16.87
2023-08-03T04:20:39.114Z,16.88
2023-08-03T04:24:42.678Z,16.90
2023-08-03T04:28:46.035Z,16.99
2023-08-03T04:32:49.485Z,17.09
2023-08-03T04:36:55.128Z,17.03
2023-08-03T04:41:01.393Z,17.12
2023-08-03T04:45:06.823Z,17.10
2023-08-03T04:49:13.684Z,17.14
2023-08-03T04:53:24.622Z,17.17
2023-08-03T04:57:29.065Z,17.23
2023-08-03T05:01:32.444Z,17.14
2023-08-03T05:05:36.281Z,17.07
2023-08-03T05:09:40.762Z,17.20
2023-08-03T05:13:43.754Z,16.96
2023-08-03T05:17:47.612Z,16.64
2023-08-03T05:21:50.535Z,16.52
2023-08-03T05:25:57.107Z,16.28
2023-08-03T05:30:00.176Z,16.22
2023-08-03T05:34:03.215Z,16.14
2023-08-03T05:38:06.299Z,16.08
2023-08-03T05:42:13.423Z,16.11
2023-08-03T05:46:17.113Z,16.06
2023-08-03T05:50:20.870Z,16.01
2023-08-03T05:54:23.948Z,16.06
2023-08-03T05:58:28.308Z,16.04
2023-08-03T06:02:34.265Z,16.10
2023-08-03T06:06:37.333Z,16.13
2023-08-03T06:10:40.372Z,16.04
2023-08-03T06:14:44.675Z,16.04
2023-08-03T06:18:49.197Z,16.07
2023-08-03T06:22:52.248Z,16.06
2023-08-03T06:26:55.197Z,16.06
2023-08-03T06:30:59.654Z,16.05
2023-08-03T06:35:02.656Z,16.09
2023-08-03T06:39:05.882Z,16.11
2023-08-03T06:43:09.313Z,16.10
2023-08-03T06:47:13.708Z,16.06
2023-08-03T06:51:16.889Z,16.03
2023-08-03T06:55:20.006Z,16.03
2023-08-03T06:59:23.211Z,15.95
2023-08-03T07:03:27.899Z,15.87
2023-08-03T07:07:30.944Z,15.86
2023-08-03T07:11:33.914Z,15.91
2023-08-03T07:15:37.041Z,16.01
2023-08-03T07:19:42.219Z,16.10
2023-08-03T07:23:45.275Z,16.22
2023-08-03T07:27:50.815Z,16.30
2023-08-03T07:31:53.919Z,16.55
2023-08-03T07:35:58.559Z,16.78
2023-08-03T07:40:01.526Z,17.16
2023-08-03T07:44:05.181Z,17.41
2023-08-03T07:48:08.129Z,17.58
2023-08-03T07:52:12.489Z,17.40
2023-08-03T07:56:15.982Z,17.25
2023-08-03T08:00:18.996Z,17.14
2023-08-03T08:04:22.065Z,17.20
2023-08-03T08:08:26.584Z,17.22
2023-08-03T08:12:29.547Z,17.33
2023-08-03T08:16:32.634Z,17.32
2023-08-03T08:20:35.788Z,17.31
2023-08-03T08:24:40.331Z,17.27
2023-08-03T08:28:50.600Z,17.39
2023-08-03T08:33:00.053Z,17.46
2023-08-03T08:37:03.149Z,17.55
2023-08-03T08:41:07.442Z,17.50
2023-08-03T08:45:12.581Z,17.65
2023-08-03T08:53:22.211Z,17.51
2023-08-03T09:01:47.276Z,17.71
2023-08-03T09:10:06.440Z,17.71
2023-08-03T09:14:11.543Z,17.89
2023-08-03T09:18:16.149Z,18.01
2023-08-03T09:31:02.144Z,17.52
2023-08-03T09:35:17.208Z,17.88
2023-08-03T09:47:36.155Z,18.91
2023-08-03T09:55:50.944Z,18.97
2023-08-03T09:59:55.967Z,19.29
2023-08-03T10:04:04.743Z,19.53
2023-08-03T10:08:08.904Z,20.12
2023-08-03T10:12:15.199Z,20.86
2023-08-03T10:16:18.788Z,20.74
2023-08-03T10:20:24.332Z,20.98
2023-08-03T10:24:27.418Z,20.82
2023-08-03T10:28:46.645Z,20.28
2023-08-03T10:32:53.163Z,19.55
2023-08-03T10:37:00.519Z,19.22
2023-08-03T10:41:22.279Z,19.07
2023-08-03T10:45:26.657Z,19.37
2023-08-03T10:50:00.350Z,19.43
2023-08-03T10:54:04.808Z,19.26
2023-08-03T10:58:07.786Z,19.03
2023-08-03T11:02:14.765Z,18.80
2023-08-03T11:06:18.731Z,18.90
2023-08-03T11:10:24.110Z,19.04
2023-08-03T11:14:29.161Z,18.99
2023-08-03T11:18:32.163Z,19.37
2023-08-03T11:22:35.542Z,19.04
2023-08-03T11:26:40.098Z,18.14
2023-08-03T11:30:45.231Z,18.20
2023-08-03T11:34:48.321Z,18.09
2023-08-03T11:38:52.275Z,18.51
2023-08-03T11:42:56.801Z,18.93
2023-08-03T11:47:06.258Z,19.37
2023-08-03T11:51:09.539Z,19.42
2023-08-03T11:55:26.659Z,19.89
2023-08-03T11:59:33.470Z,19.68
2023-08-03T12:03:37.793Z,18.90
2023-08-03T12:07:41.353Z,18.64
2023-08-03T12:15:50.981Z,18.69
2023-08-03T12:19:54.195Z,18.42
2023-08-03T12:23:57.210Z,17.92
2023-08-03T12:28:00.568Z,17.48
2023-08-03T12:32:05.244Z,17.19
2023-08-03T12:36:08.430Z,17.38
2023-08-03T12:40:12.234Z,17.99
2023-08-03T12:44:15.476Z,18.37
2023-08-03T12:48:22.814Z,18.32
2023-08-03T12:52:26.591Z,18.48
2023-08-03T12:56:29.684Z,18.62
2023-08-03T13:00:32.895Z,18.58
2023-08-03T13:04:37.742Z,18.50
2023-08-03T13:08:40.818Z,18.07
2023-08-03T13:12:44.543Z,17.73
2023-08-03T13:16:48.671Z,17.24
2023-08-03T13:25:05.214Z,17.12
2023-08-03T13:29:08.378Z,17.15
2023-08-03T13:33:11.642Z,17.05
2023-08-03T13:37:16.133Z,16.97
2023-08-03T13:41:19.460Z,17.11
2023-08-03T13:45:22.460Z,16.93
2023-08-03T13:49:25.406Z,16.87
2023-08-03T13:53:30.055Z,16.91
2023-08-03T13:57:35.618Z,16.82
2023-08-03T14:01:39.345Z,17.09
2023-08-03T14:05:43.300Z,17.21
2023-08-03T14:10:26.302Z,17.16
2023-08-03T14:14:46.559Z,17.25
2023-08-03T14:22:41.170Z,17.38
2023-08-03T14:26:45.871Z,17.39
2023-08-03T14:30:49.073Z,17.36
2023-08-03T14:38:58.193Z,17.57
2023-08-03T14:43:02.613Z,17.77
2023-08-03T14:47:05.689Z,17.54
2023-08-03T14:55:15.103Z,17.56
2023-08-03T14:59:19.517Z,17.51
2023-08-03T15:03:23.535Z,17.49
2023-08-03T15:07:26.624Z,17.75
2023-08-03T15:11:31.828Z,17.92
2023-08-03T15:15:36.416Z,18.19
2023-08-03T15:19:41.790Z,18.25
2023-08-03T15:23:46.694Z,18.54
2023-08-03T15:32:00.581Z,18.85
2023-08-03T15:36:35.123Z,18.68
2023-08-03T15:40:53.363Z,18.68
2023-08-03T15:45:05.028Z,18.85
2023-08-03T15:49:16.729Z,18.89
2023-08-03T15:53:32.642Z,18.91
2023-08-03T15:57:40.540Z,18.68
2023-08-03T16:01:43.849Z,18.28
2023-08-03T16:05:48.365Z,18.36
2023-08-03T16:09:51.564Z,18.42
2023-08-03T16:13:54.511Z,18.65
2023-08-03T16:17:57.521Z,18.65
2023-08-03T16:22:01.870Z,18.61
2023-08-03T16:26:08.199Z,18.69
2023-08-03T16:30:11.422Z,18.79
2023-08-03T16:34:14.683Z,19.03
2023-08-03T16:38:19.525Z,19.00
2023-08-03T16:42:22.633Z,18.81
2023-08-03T16:46:25.816Z,18.38
2023-08-03T16:50:28.880Z,18.04
2023-08-03T16:54:33.205Z,17.76
2023-08-03T16:58:36.463Z,17.64
2023-08-03T17:02:39.944Z,17.45
2023-08-03T17:06:43.039Z,17.46
2023-08-03T17:10:47.588Z,17.41
2023-08-03T17:14:50.790Z,17.36
2023-08-03T17:18:53.787Z,17.41
2023-08-03T17:22:57.040Z,17.38
2023-08-03T17:27:01.456Z,17.39
2023-08-03T17:31:05.071Z,17.46
2023-08-03T17:35:08.590Z,17.51
2023-08-03T17:39:11.732Z,17.44
2023-08-03T17:43:16.025Z,17.45
2023-08-03T17:47:19.041Z,17.45
2023-08-03T17:51:22.132Z,17.43
2023-08-03T17:55:26.266Z,17.33
2023-08-03T17:59:30.993Z,17.28
2023-08-03T18:03:36.926Z,17.14
2023-08-03T18:07:41.213Z,17.01
2023-08-03T18:11:44.268Z,16.99
2023-08-03T18:15:48.711Z,16.94
2023-08-03T18:19:54.869Z,16.90
2023-08-03T18:23:59.127Z,16.84
2023-08-03T18:28:02.244Z,16.74
2023-08-03T18:32:07.084Z,16.72
2023-08-03T18:36:10.949Z,16.68
2023-08-03T18:40:13.851Z,16.71
2023-08-03T18:44:16.793Z,16.77
2023-08-03T18:48:21.550Z,16.74
2023-08-03T18:56:28.030Z,16.74
2023-08-03T19:00:31.007Z,16.67
2023-08-03T19:04:35.424Z,16.64
2023-08-03T19:08:38.775Z,16.58
2023-08-03T19:12:42.084Z,16.47
2023-08-03T19:16:45.636Z,16.48
2023-08-03T19:20:50.524Z,16.44
2023-08-03T19:24:53.582Z,16.38
2023-08-03T19:28:56.570Z,16.34
2023-08-03T19:33:00.779Z,16.30
2023-08-03T19:37:05.461Z,16.23
2023-08-03T19:41:08.524Z,16.19
2023-08-03T19:45:13.356Z,16.11
2023-08-03T20:09:48.867Z,15.83
2023-08-03T20:22:04.147Z,15.73
2023-08-03T20:26:10.750Z,15.71
2023-08-03T20:30:14.008Z,15.67
2023-08-03T20:34:16.994Z,15.68
2023-08-03T20:38:33.665Z,15.60
2023-08-03T20:54:56.211Z,15.24
2023-08-03T20:59:00.701Z,15.15
2023-08-03T21:03:05.959Z,15.12
2023-08-03T21:07:09.193Z,15.06
2023-08-03T21:11:12.855Z,14.96
2023-08-03T21:15:17.661Z,14.93
2023-08-03T21:19:22.938Z,15.03
2023-08-03T21:23:25.920Z,15.04
2023-08-03T21:27:31.671Z,15.04
2023-08-03T21:31:41.569Z,14.99
2023-08-03T21:35:44.643Z,14.97
2023-08-03T21:39:47.999Z,14.90
2023-08-03T21:43:51.139Z,14.90
2023-08-03T21:47:55.514Z,14.85
2023-08-03T21:51:58.887Z,14.83
2023-08-03T21:56:01.967Z,14.77
2023-08-03T22:00:05.796Z,14.64
2023-08-03T22:04:16.980Z,14.53
2023-08-03T22:08:19.896Z,14.52
2023-08-03T22:12:24.376Z,14.40
2023-08-03T22:16:27.544Z,14.40
2023-08-03T22:20:32.233Z,14.33
2023-08-03T22:24:35.252Z,14.29
2023-08-03T22:28:38.221Z,14.18
2023-08-03T22:32:41.188Z,13.97
2023-08-03T22:36:45.821Z,13.91
2023-08-03T22:40:54.079Z,13.87
2023-08-03T22:44:57.162Z,13.78
2023-08-03T22:49:00.182Z,13.76
2023-08-03T22:53:04.743Z,13.70
2023-08-03T22:57:07.700Z,13.72
2023-08-03T23:01:14.853Z,13.69
2023-08-03T23:05:18.174Z,13.67
2023-08-03T23:09:22.530Z,13.70
2023-08-03T23:13:25.653Z,13.66
2023-08-03T23:17:28.761Z,13.59
2023-08-03T23:21:32.381Z,13.58
2023-08-03T23:25:36.683Z,13.53
2023-08-03T23:29:39.669Z,13.48
2023-08-03T23:33:42.824Z,13.48
2023-08-03T23:37:45.878Z,13.54
2023-08-03T23:41:50.145Z,13.59
2023-08-03T23:45:53.164Z,13.57
2023-08-03T23:49:56.188Z,13.57
2023-08-03T23:53:59.228Z,13.55
2023-08-03T23:58:03.553Z,13.57
